sensor_id;sensor_type;location;lat;lon;timestamp;P1;durP1;ratioP1;P2;durP2;ratioP2
60867;SDS011;46702;48.370;10.794;2023-05-10T00:01:43;1.80;;;1.50;;
60867;SDS011;46702;48.370;10.794;2023-05-10T00:04:08;1.70;;;1.60;;
60867;SDS011;46702;48.370;10.794;2023-05-10T00:06:34;1.98;;;1.70;;
60867;SDS011;46702;48.370;10.794;2023-05-10T00:09:00;1.90;;;1.80;;
60867;SDS011;46702;48.370;10.794;2023-05-10T00:11:25;2.53;;;1.65;;
60867;SDS011;46702;48.370;10.794;2023-05-10T00:13:51;3.30;;;1.83;;
60867;SDS011;46702;48.370;10.794;2023-05-10T00:16:17;1.52;;;1.40;;
60867;SDS011;46702;48.370;10.794;2023-05-10T00:18:42;1.70;;;1.48;;
60867;SDS011;46702;48.370;10.794;2023-05-10T00:21:08;2.15;;;1.60;;
60867;SDS011;46702;48.370;10.794;2023-05-10T00:23:33;1.50;;;1.40;;
60867;SDS011;46702;48.370;10.794;2023-05-10T00:25:59;1.48;;;1.38;;
60867;SDS011;46702;48.370;10.794;2023-05-10T00:28:25;2.67;;;1.40;;
60867;SDS011;46702;48.370;10.794;2023-05-10T00:33:18;1.70;;;1.60;;
60867;SDS011;46702;48.370;10.794;2023-05-10T00:35:44;1.50;;;1.40;;
60867;SDS011;46702;48.370;10.794;2023-05-10T00:38:09;2.00;;;1.63;;
60867;SDS011;46702;48.370;10.794;2023-05-10T00:40:35;2.03;;;1.60;;
60867;SDS011;46702;48.370;10.794;2023-05-10T00:43:04;3.53;;;1.50;;
60867;SDS011;46702;48.370;10.794;2023-05-10T00:45:32;1.60;;;1.50;;
60867;SDS011;46702;48.370;10.794;2023-05-10T00:47:59;1.70;;;1.17;;
60867;SDS011;46702;48.370;10.794;2023-05-10T00:50:27;1.70;;;1.60;;
60867;SDS011;46702;48.370;10.794;2023-05-10T00:52:53;1.70;;;1.60;;
60867;SDS011;46702;48.370;10.794;2023-05-10T00:55:18;1.85;;;1.75;;
60867;SDS011;46702;48.370;10.794;2023-05-10T00:57:44;3.10;;;1.55;;
60867;SDS011;46702;48.370;10.794;2023-05-10T01:00:10;2.20;;;1.50;;
60867;SDS011;46702;48.370;10.794;2023-05-10T01:02:37;1.60;;;1.50;;
60867;SDS011;46702;48.370;10.794;2023-05-10T01:05:03;1.85;;;1.60;;
60867;SDS011;46702;48.370;10.794;2023-05-10T01:07:30;1.95;;;1.80;;
60867;SDS011;46702;48.370;10.794;2023-05-10T01:09:55;1.63;;;1.30;;
60867;SDS011;46702;48.370;10.794;2023-05-10T01:12:22;1.50;;;1.40;;
60867;SDS011;46702;48.370;10.794;2023-05-10T01:14:48;1.67;;;1.58;;
60867;SDS011;46702;48.370;10.794;2023-05-10T01:17:14;2.38;;;1.60;;
60867;SDS011;46702;48.370;10.794;2023-05-10T01:19:40;1.60;;;1.50;;
60867;SDS011;46702;48.370;10.794;2023-05-10T01:27:45;1.55;;;1.40;;
60867;SDS011;46702;48.370;10.794;2023-05-10T01:38:25;1.77;;;1.38;;
60867;SDS011;46702;48.370;10.794;2023-05-10T01:44:38;1.38;;;1.27;;
60867;SDS011;46702;48.370;10.794;2023-05-10T01:46:36;1.35;;;1.25;;
60867;SDS011;46702;48.370;10.794;2023-05-10T01:49:03;1.77;;;1.45;;
60867;SDS011;46702;48.370;10.794;2023-05-10T01:52:08;1.00;;;1.00;;
60867;SDS011;46702;48.370;10.794;2023-05-10T01:54:31;1.30;;;1.20;;
60867;SDS011;46702;48.370;10.794;2023-05-10T01:57:00;0.90;;;0.90;;
60867;SDS011;46702;48.370;10.794;2023-05-10T01:59:31;1.15;;;1.15;;
60867;SDS011;46702;48.370;10.794;2023-05-10T02:02:05;1.25;;;1.25;;
60867;SDS011;46702;48.370;10.794;2023-05-10T02:04:33;1.23;;;1.10;;
60867;SDS011;46702;48.370;10.794;2023-05-10T02:07:02;1.60;;;1.17;;
60867;SDS011;46702;48.370;10.794;2023-05-10T02:09:30;1.50;;;1.40;;
60867;SDS011;46702;48.370;10.794;2023-05-10T02:11:58;1.33;;;1.23;;
60867;SDS011;46702;48.370;10.794;2023-05-10T02:14:27;1.30;;;1.20;;
60867;SDS011;46702;48.370;10.794;2023-05-10T02:19:21;1.90;;;1.00;;
60867;SDS011;46702;48.370;10.794;2023-05-10T02:21:48;1.30;;;1.20;;
60867;SDS011;46702;48.370;10.794;2023-05-10T02:24:16;2.25;;;1.00;;
60867;SDS011;46702;48.370;10.794;2023-05-10T02:26:42;1.20;;;1.10;;
60867;SDS011;46702;48.370;10.794;2023-05-10T02:29:10;2.85;;;1.20;;
60867;SDS011;46702;48.370;10.794;2023-05-10T02:31:37;1.17;;;0.90;;
60867;SDS011;46702;48.370;10.794;2023-05-10T02:34:04;1.08;;;1.08;;
60867;SDS011;46702;48.370;10.794;2023-05-10T02:36:31;1.20;;;1.10;;
60867;SDS011;46702;48.370;10.794;2023-05-10T02:38:57;1.00;;;1.00;;
60867;SDS011;46702;48.370;10.794;2023-05-10T02:43:51;0.90;;;0.90;;
60867;SDS011;46702;48.370;10.794;2023-05-10T02:46:22;2.78;;;0.82;;
60867;SDS011;46702;48.370;10.794;2023-05-10T02:48:48;1.00;;;1.00;;
60867;SDS011;46702;48.370;10.794;2023-05-10T02:51:13;1.60;;;0.88;;
60867;SDS011;46702;48.370;10.794;2023-05-10T02:53:42;0.82;;;0.82;;
60867;SDS011;46702;48.370;10.794;2023-05-10T02:58:43;0.80;;;0.80;;
60867;SDS011;46702;48.370;10.794;2023-05-10T03:01:09;0.90;;;0.90;;
60867;SDS011;46702;48.370;10.794;2023-05-10T03:03:34;0.70;;;0.70;;
60867;SDS011;46702;48.370;10.794;2023-05-10T03:06:00;0.60;;;0.60;;
60867;SDS011;46702;48.370;10.794;2023-05-10T03:08:26;3.03;;;0.80;;
60867;SDS011;46702;48.370;10.794;2023-05-10T03:11:08;0.80;;;0.80;;
60867;SDS011;46702;48.370;10.794;2023-05-10T03:13:59;2.70;;;0.80;;
60867;SDS011;46702;48.370;10.794;2023-05-10T03:16:42;1.42;;;0.65;;
60867;SDS011;46702;48.370;10.794;2023-05-10T03:19:20;0.50;;;0.50;;
60867;SDS011;46702;48.370;10.794;2023-05-10T03:21:51;0.50;;;0.50;;
60867;SDS011;46702;48.370;10.794;2023-05-10T03:24:20;0.50;;;0.50;;
60867;SDS011;46702;48.370;10.794;2023-05-10T03:26:48;0.50;;;0.50;;
60867;SDS011;46702;48.370;10.794;2023-05-10T03:29:15;1.02;;;0.82;;
60867;SDS011;46702;48.370;10.794;2023-05-10T03:31:41;0.55;;;0.55;;
60867;SDS011;46702;48.370;10.794;2023-05-10T03:34:07;0.70;;;0.70;;
60867;SDS011;46702;48.370;10.794;2023-05-10T03:36:32;0.60;;;0.60;;
60867;SDS011;46702;48.370;10.794;2023-05-10T03:38:58;1.23;;;0.60;;
60867;SDS011;46702;48.370;10.794;2023-05-10T03:41:24;0.77;;;0.70;;
60867;SDS011;46702;48.370;10.794;2023-05-10T03:43:50;0.47;;;0.47;;
60867;SDS011;46702;48.370;10.794;2023-05-10T03:46:16;0.40;;;0.40;;
60867;SDS011;46702;48.370;10.794;2023-05-10T03:48:41;0.22;;;0.22;;
60867;SDS011;46702;48.370;10.794;2023-05-10T03:51:07;4.57;;;0.60;;
60867;SDS011;46702;48.370;10.794;2023-05-10T03:53:33;0.52;;;0.50;;
60867;SDS011;46702;48.370;10.794;2023-05-10T03:55:58;2.00;;;0.40;;
60867;SDS011;46702;48.370;10.794;2023-05-10T03:58:24;0.30;;;0.30;;
60867;SDS011;46702;48.370;10.794;2023-05-10T04:00:50;0.20;;;0.20;;
60867;SDS011;46702;48.370;10.794;2023-05-10T04:03:16;0.30;;;0.30;;
60867;SDS011;46702;48.370;10.794;2023-05-10T04:05:42;1.85;;;0.40;;
60867;SDS011;46702;48.370;10.794;2023-05-10T04:08:08;0.50;;;0.50;;
60867;SDS011;46702;48.370;10.794;2023-05-10T04:10:33;0.50;;;0.50;;
60867;SDS011;46702;48.370;10.794;2023-05-10T04:12:59;1.95;;;0.60;;
60867;SDS011;46702;48.370;10.794;2023-05-10T04:15:25;0.40;;;0.40;;
60867;SDS011;46702;48.370;10.794;2023-05-10T04:17:50;0.20;;;0.20;;
60867;SDS011;46702;48.370;10.794;2023-05-10T04:20:16;0.40;;;0.40;;
60867;SDS011;46702;48.370;10.794;2023-05-10T04:22:42;0.52;;;0.52;;
60867;SDS011;46702;48.370;10.794;2023-05-10T04:25:08;0.40;;;0.40;;
60867;SDS011;46702;48.370;10.794;2023-05-10T04:27:34;0.50;;;0.50;;
60867;SDS011;46702;48.370;10.794;2023-05-10T04:29:59;0.40;;;0.40;;
60867;SDS011;46702;48.370;10.794;2023-05-10T04:32:25;0.40;;;0.40;;
60867;SDS011;46702;48.370;10.794;2023-05-10T04:34:50;0.40;;;0.40;;
60867;SDS011;46702;48.370;10.794;2023-05-10T04:37:16;2.75;;;0.50;;
60867;SDS011;46702;48.370;10.794;2023-05-10T04:39:42;1.35;;;0.82;;
60867;SDS011;46702;48.370;10.794;2023-05-10T04:42:08;0.47;;;0.40;;
60867;SDS011;46702;48.370;10.794;2023-05-10T04:44:34;1.38;;;0.52;;
60867;SDS011;46702;48.370;10.794;2023-05-10T04:47:01;1.45;;;0.50;;
60867;SDS011;46702;48.370;10.794;2023-05-10T04:49:27;0.60;;;0.60;;
60867;SDS011;46702;48.370;10.794;2023-05-10T04:51:53;1.65;;;0.85;;
60867;SDS011;46702;48.370;10.794;2023-05-10T04:54:18;0.60;;;0.50;;
60867;SDS011;46702;48.370;10.794;2023-05-10T04:56:44;0.40;;;0.40;;
60867;SDS011;46702;48.370;10.794;2023-05-10T04:59:10;0.40;;;0.40;;
60867;SDS011;46702;48.370;10.794;2023-05-10T05:01:35;0.70;;;0.50;;
60867;SDS011;46702;48.370;10.794;2023-05-10T05:04:01;1.40;;;0.73;;
60867;SDS011;46702;48.370;10.794;2023-05-10T05:06:27;0.50;;;0.50;;
60867;SDS011;46702;48.370;10.794;2023-05-10T05:08:52;0.50;;;0.50;;
60867;SDS011;46702;48.370;10.794;2023-05-10T05:11:18;0.90;;;0.43;;
60867;SDS011;46702;48.370;10.794;2023-05-10T05:13:44;2.17;;;0.50;;
60867;SDS011;46702;48.370;10.794;2023-05-10T05:16:10;0.52;;;0.52;;
60867;SDS011;46702;48.370;10.794;2023-05-10T05:21:12;0.50;;;0.50;;
60867;SDS011;46702;48.370;10.794;2023-05-10T05:23:42;0.43;;;0.43;;
60867;SDS011;46702;48.370;10.794;2023-05-10T05:26:07;0.50;;;0.50;;
60867;SDS011;46702;48.370;10.794;2023-05-10T05:28:33;0.77;;;0.60;;
60867;SDS011;46702;48.370;10.794;2023-05-10T05:31:02;0.50;;;0.50;;
60867;SDS011;46702;48.370;10.794;2023-05-10T05:33:28;0.65;;;0.65;;
60867;SDS011;46702;48.370;10.794;2023-05-10T05:35:53;0.52;;;0.52;;
60867;SDS011;46702;48.370;10.794;2023-05-10T05:38:19;0.50;;;0.50;;
60867;SDS011;46702;48.370;10.794;2023-05-10T05:40:44;0.47;;;0.47;;
60867;SDS011;46702;48.370;10.794;2023-05-10T05:43:10;0.60;;;0.60;;
60867;SDS011;46702;48.370;10.794;2023-05-10T05:45:36;0.50;;;0.50;;
60867;SDS011;46702;48.370;10.794;2023-05-10T05:48:01;0.65;;;0.65;;
60867;SDS011;46702;48.370;10.794;2023-05-10T05:50:27;0.65;;;0.63;;
60867;SDS011;46702;48.370;10.794;2023-05-10T05:52:53;0.60;;;0.60;;
60867;SDS011;46702;48.370;10.794;2023-05-10T05:55:18;0.70;;;0.70;;
60867;SDS011;46702;48.370;10.794;2023-05-10T05:57:44;1.88;;;0.75;;
60867;SDS011;46702;48.370;10.794;2023-05-10T06:00:10;0.80;;;0.80;;
60867;SDS011;46702;48.370;10.794;2023-05-10T06:02:36;1.15;;;0.90;;
60867;SDS011;46702;48.370;10.794;2023-05-10T06:05:02;0.80;;;0.80;;
60867;SDS011;46702;48.370;10.794;2023-05-10T06:07:27;0.70;;;0.70;;
60867;SDS011;46702;48.370;10.794;2023-05-10T06:09:53;2.10;;;0.80;;
60867;SDS011;46702;48.370;10.794;2023-05-10T06:12:18;1.13;;;1.13;;
60867;SDS011;46702;48.370;10.794;2023-05-10T06:14:44;0.90;;;0.90;;
60867;SDS011;46702;48.370;10.794;2023-05-10T06:17:10;0.68;;;0.68;;
60867;SDS011;46702;48.370;10.794;2023-05-10T06:19:35;0.88;;;0.88;;
60867;SDS011;46702;48.370;10.794;2023-05-10T06:22:01;2.25;;;1.00;;
60867;SDS011;46702;48.370;10.794;2023-05-10T06:24:27;0.70;;;0.70;;
60867;SDS011;46702;48.370;10.794;2023-05-10T06:26:52;0.90;;;0.90;;
60867;SDS011;46702;48.370;10.794;2023-05-10T06:29:18;1.40;;;0.95;;
60867;SDS011;46702;48.370;10.794;2023-05-10T06:31:44;0.80;;;0.80;;
60867;SDS011;46702;48.370;10.794;2023-05-10T06:34:09;0.77;;;0.75;;
60867;SDS011;46702;48.370;10.794;2023-05-10T06:36:36;0.77;;;0.77;;
60867;SDS011;46702;48.370;10.794;2023-05-10T06:39:02;1.90;;;0.90;;
60867;SDS011;46702;48.370;10.794;2023-05-10T06:41:28;3.28;;;0.90;;
60867;SDS011;46702;48.370;10.794;2023-05-10T06:43:53;1.00;;;1.00;;
60867;SDS011;46702;48.370;10.794;2023-05-10T06:46:19;0.85;;;0.85;;
60867;SDS011;46702;48.370;10.794;2023-05-10T06:48:45;0.70;;;0.70;;
60867;SDS011;46702;48.370;10.794;2023-05-10T06:51:10;1.00;;;0.82;;
60867;SDS011;46702;48.370;10.794;2023-05-10T06:53:36;3.03;;;1.48;;
60867;SDS011;46702;48.370;10.794;2023-05-10T06:56:02;1.02;;;0.98;;
60867;SDS011;46702;48.370;10.794;2023-05-10T06:58:28;1.55;;;0.75;;
60867;SDS011;46702;48.370;10.794;2023-05-10T07:00:53;1.55;;;0.80;;
60867;SDS011;46702;48.370;10.794;2023-05-10T07:03:19;1.17;;;0.90;;
60867;SDS011;46702;48.370;10.794;2023-05-10T07:05:45;2.25;;;0.90;;
60867;SDS011;46702;48.370;10.794;2023-05-10T07:08:10;2.30;;;0.90;;
60867;SDS011;46702;48.370;10.794;2023-05-10T07:10:36;1.25;;;0.80;;
60867;SDS011;46702;48.370;10.794;2023-05-10T07:13:01;5.30;;;0.90;;
60867;SDS011;46702;48.370;10.794;2023-05-10T07:15:27;1.55;;;0.82;;
60867;SDS011;46702;48.370;10.794;2023-05-10T07:17:53;0.65;;;0.65;;
60867;SDS011;46702;48.370;10.794;2023-05-10T07:20:19;0.57;;;0.57;;
60867;SDS011;46702;48.370;10.794;2023-05-10T07:22:46;1.45;;;0.70;;
60867;SDS011;46702;48.370;10.794;2023-05-10T07:25:12;3.30;;;0.82;;
60867;SDS011;46702;48.370;10.794;2023-05-10T07:27:38;1.08;;;0.85;;
60867;SDS011;46702;48.370;10.794;2023-05-10T07:30:03;2.47;;;1.13;;
60867;SDS011;46702;48.370;10.794;2023-05-10T07:32:29;1.45;;;0.90;;
60867;SDS011;46702;48.370;10.794;2023-05-10T07:34:55;1.15;;;0.95;;
60867;SDS011;46702;48.370;10.794;2023-05-10T07:37:21;1.42;;;1.10;;
60867;SDS011;46702;48.370;10.794;2023-05-10T07:39:46;1.80;;;0.90;;
60867;SDS011;46702;48.370;10.794;2023-05-10T07:42:12;1.40;;;0.70;;
60867;SDS011;46702;48.370;10.794;2023-05-10T07:44:37;1.10;;;0.82;;
60867;SDS011;46702;48.370;10.794;2023-05-10T07:47:03;0.90;;;0.90;;
60867;SDS011;46702;48.370;10.794;2023-05-10T07:49:28;0.93;;;0.90;;
60867;SDS011;46702;48.370;10.794;2023-05-10T07:51:54;1.73;;;0.90;;
60867;SDS011;46702;48.370;10.794;2023-05-10T07:54:20;0.80;;;0.80;;
60867;SDS011;46702;48.370;10.794;2023-05-10T07:56:48;0.80;;;0.80;;
60867;SDS011;46702;48.370;10.794;2023-05-10T07:59:17;3.97;;;0.68;;
60867;SDS011;46702;48.370;10.794;2023-05-10T08:01:42;1.48;;;0.88;;
60867;SDS011;46702;48.370;10.794;2023-05-10T08:04:09;1.10;;;1.08;;
60867;SDS011;46702;48.370;10.794;2023-05-10T08:06:34;3.35;;;0.65;;
60867;SDS011;46702;48.370;10.794;2023-05-10T08:09:00;1.00;;;0.88;;
60867;SDS011;46702;48.370;10.794;2023-05-10T08:11:26;0.98;;;0.70;;
60867;SDS011;46702;48.370;10.794;2023-05-10T08:13:53;1.05;;;0.80;;
60867;SDS011;46702;48.370;10.794;2023-05-10T08:16:19;1.02;;;0.93;;
60867;SDS011;46702;48.370;10.794;2023-05-10T08:18:45;1.63;;;0.85;;
60867;SDS011;46702;48.370;10.794;2023-05-10T08:21:11;0.60;;;0.60;;
60867;SDS011;46702;48.370;10.794;2023-05-10T08:23:38;1.98;;;0.82;;
60867;SDS011;46702;48.370;10.794;2023-05-10T08:26:04;1.73;;;0.80;;
60867;SDS011;46702;48.370;10.794;2023-05-10T08:28:30;1.20;;;0.60;;
60867;SDS011;46702;48.370;10.794;2023-05-10T08:30:55;0.85;;;0.80;;
60867;SDS011;46702;48.370;10.794;2023-05-10T08:33:21;0.80;;;0.80;;
60867;SDS011;46702;48.370;10.794;2023-05-10T08:35:47;0.75;;;0.75;;
60867;SDS011;46702;48.370;10.794;2023-05-10T08:38:12;1.75;;;0.90;;
60867;SDS011;46702;48.370;10.794;2023-05-10T08:40:39;1.15;;;1.05;;
60867;SDS011;46702;48.370;10.794;2023-05-10T08:43:08;0.90;;;0.90;;
60867;SDS011;46702;48.370;10.794;2023-05-10T08:45:37;0.77;;;0.77;;
60867;SDS011;46702;48.370;10.794;2023-05-10T08:48:13;0.90;;;0.90;;
60867;SDS011;46702;48.370;10.794;2023-05-10T08:50:39;0.90;;;0.90;;
60867;SDS011;46702;48.370;10.794;2023-05-10T08:53:06;1.63;;;1.00;;
60867;SDS011;46702;48.370;10.794;2023-05-10T08:55:36;1.20;;;1.10;;
60867;SDS011;46702;48.370;10.794;2023-05-10T08:58:03;1.35;;;1.05;;
60867;SDS011;46702;48.370;10.794;2023-05-10T09:00:29;1.08;;;1.08;;
60867;SDS011;46702;48.370;10.794;2023-05-10T09:02:57;1.65;;;0.90;;
60867;SDS011;46702;48.370;10.794;2023-05-10T09:05:23;1.40;;;0.87;;
60867;SDS011;46702;48.370;10.794;2023-05-10T09:07:49;0.80;;;0.80;;
60867;SDS011;46702;48.370;10.794;2023-05-10T09:10:14;2.67;;;1.10;;
60867;SDS011;46702;48.370;10.794;2023-05-10T09:12:40;1.13;;;0.90;;
60867;SDS011;46702;48.370;10.794;2023-05-10T09:15:06;1.48;;;0.98;;
60867;SDS011;46702;48.370;10.794;2023-05-10T09:17:34;1.02;;;0.90;;
60867;SDS011;46702;48.370;10.794;2023-05-10T09:20:00;2.97;;;0.90;;
60867;SDS011;46702;48.370;10.794;2023-05-10T09:22:27;2.47;;;1.02;;
60867;SDS011;46702;48.370;10.794;2023-05-10T09:25:26;1.10;;;1.00;;
60867;SDS011;46702;48.370;10.794;2023-05-10T09:27:45;0.88;;;0.88;;
60867;SDS011;46702;48.370;10.794;2023-05-10T09:30:16;1.30;;;1.10;;
60867;SDS011;46702;48.370;10.794;2023-05-10T09:32:48;4.82;;;1.30;;
60867;SDS011;46702;48.370;10.794;2023-05-10T09:35:15;1.85;;;1.20;;
60867;SDS011;46702;48.370;10.794;2023-05-10T09:37:44;1.58;;;1.20;;
60867;SDS011;46702;48.370;10.794;2023-05-10T09:45:35;2.45;;;1.10;;
60867;SDS011;46702;48.370;10.794;2023-05-10T09:48:01;0.93;;;0.93;;
60867;SDS011;46702;48.370;10.794;2023-05-10T09:50:28;1.27;;;1.00;;
60867;SDS011;46702;48.370;10.794;2023-05-10T09:55:45;2.75;;;1.00;;
60867;SDS011;46702;48.370;10.794;2023-05-10T09:58:11;1.00;;;1.00;;
60867;SDS011;46702;48.370;10.794;2023-05-10T10:00:41;1.73;;;1.10;;
60867;SDS011;46702;48.370;10.794;2023-05-10T10:03:14;1.63;;;1.30;;
60867;SDS011;46702;48.370;10.794;2023-05-10T10:05:41;3.75;;;1.20;;
60867;SDS011;46702;48.370;10.794;2023-05-10T10:08:12;1.67;;;1.27;;
60867;SDS011;46702;48.370;10.794;2023-05-10T10:10:38;3.25;;;1.52;;
60867;SDS011;46702;48.370;10.794;2023-05-10T10:13:09;1.45;;;1.35;;
60867;SDS011;46702;48.370;10.794;2023-05-10T10:15:34;1.35;;;1.13;;
60867;SDS011;46702;48.370;10.794;2023-05-10T10:18:00;1.55;;;1.30;;
60867;SDS011;46702;48.370;10.794;2023-05-10T10:20:26;1.65;;;1.30;;
60867;SDS011;46702;48.370;10.794;2023-05-10T10:22:53;3.03;;;1.45;;
60867;SDS011;46702;48.370;10.794;2023-05-10T10:25:18;1.67;;;1.58;;
60867;SDS011;46702;48.370;10.794;2023-05-10T10:30:23;1.10;;;1.00;;
60867;SDS011;46702;48.370;10.794;2023-05-10T10:35:58;1.60;;;1.30;;
60867;SDS011;46702;48.370;10.794;2023-05-10T10:38:25;2.10;;;1.00;;
60867;SDS011;46702;48.370;10.794;2023-05-10T10:41:10;0.93;;;0.90;;
60867;SDS011;46702;48.370;10.794;2023-05-10T10:44:22;0.90;;;0.90;;
60867;SDS011;46702;48.370;10.794;2023-05-10T10:52:41;2.85;;;0.80;;
60867;SDS011;46702;48.370;10.794;2023-05-10T10:55:13;0.82;;;0.63;;
60867;SDS011;46702;48.370;10.794;2023-05-10T11:10:39;0.98;;;0.88;;
60867;SDS011;46702;48.370;10.794;2023-05-10T11:13:16;2.70;;;1.10;;
60867;SDS011;46702;48.370;10.794;2023-05-10T11:18:30;2.13;;;1.23;;
60867;SDS011;46702;48.370;10.794;2023-05-10T11:20:57;1.85;;;0.98;;
60867;SDS011;46702;48.370;10.794;2023-05-10T11:23:29;1.00;;;1.00;;
60867;SDS011;46702;48.370;10.794;2023-05-10T11:26:15;1.90;;;1.10;;
60867;SDS011;46702;48.370;10.794;2023-05-10T11:28:45;1.10;;;1.00;;
60867;SDS011;46702;48.370;10.794;2023-05-10T11:31:16;1.77;;;1.00;;
60867;SDS011;46702;48.370;10.794;2023-05-10T11:33:46;1.42;;;1.15;;
60867;SDS011;46702;48.370;10.794;2023-05-10T11:36:14;1.08;;;0.80;;
60867;SDS011;46702;48.370;10.794;2023-05-10T11:38:41;1.50;;;1.00;;
60867;SDS011;46702;48.370;10.794;2023-05-10T11:41:10;3.45;;;1.13;;
60867;SDS011;46702;48.370;10.794;2023-05-10T11:43:38;1.10;;;1.00;;
60867;SDS011;46702;48.370;10.794;2023-05-10T11:46:09;0.80;;;0.80;;
60867;SDS011;46702;48.370;10.794;2023-05-10T11:48:38;2.40;;;0.90;;
60867;SDS011;46702;48.370;10.794;2023-05-10T11:51:04;0.90;;;0.90;;
60867;SDS011;46702;48.370;10.794;2023-05-10T11:53:32;0.80;;;0.70;;
60867;SDS011;46702;48.370;10.794;2023-05-10T11:56:04;0.80;;;0.80;;
60867;SDS011;46702;48.370;10.794;2023-05-10T11:58:31;0.52;;;0.45;;
60867;SDS011;46702;48.370;10.794;2023-05-10T12:00:58;0.88;;;0.60;;
60867;SDS011;46702;48.370;10.794;2023-05-10T12:03:25;3.10;;;0.90;;
60867;SDS011;46702;48.370;10.794;2023-05-10T12:05:52;0.68;;;0.68;;
60867;SDS011;46702;48.370;10.794;2023-05-10T12:08:27;0.60;;;0.60;;
60867;SDS011;46702;48.370;10.794;2023-05-10T12:11:03;0.60;;;0.57;;
60867;SDS011;46702;48.370;10.794;2023-05-10T12:13:30;0.60;;;0.60;;
60867;SDS011;46702;48.370;10.794;2023-05-10T12:15:59;1.48;;;0.50;;
60867;SDS011;46702;48.370;10.794;2023-05-10T12:18:38;0.50;;;0.50;;
60867;SDS011;46702;48.370;10.794;2023-05-10T12:21:05;1.30;;;0.70;;
60867;SDS011;46702;48.370;10.794;2023-05-10T12:23:31;0.60;;;0.60;;
60867;SDS011;46702;48.370;10.794;2023-05-10T12:26:01;0.55;;;0.43;;
60867;SDS011;46702;48.370;10.794;2023-05-10T12:28:29;0.30;;;0.30;;
60867;SDS011;46702;48.370;10.794;2023-05-10T12:30:57;0.50;;;0.50;;
60867;SDS011;46702;48.370;10.794;2023-05-10T12:33:23;0.55;;;0.55;;
60867;SDS011;46702;48.370;10.794;2023-05-10T12:35:50;2.55;;;0.50;;
60867;SDS011;46702;48.370;10.794;2023-05-10T12:38:27;0.40;;;0.40;;
60867;SDS011;46702;48.370;10.794;2023-05-10T12:41:01;0.82;;;0.65;;
60867;SDS011;46702;48.370;10.794;2023-05-10T12:43:28;1.15;;;0.70;;
60867;SDS011;46702;48.370;10.794;2023-05-10T12:45:55;1.08;;;0.57;;
60867;SDS011;46702;48.370;10.794;2023-05-10T12:48:20;0.65;;;0.60;;
60867;SDS011;46702;48.370;10.794;2023-05-10T12:50:46;0.60;;;0.60;;
60867;SDS011;46702;48.370;10.794;2023-05-10T12:53:15;0.80;;;0.60;;
60867;SDS011;46702;48.370;10.794;2023-05-10T12:55:42;0.50;;;0.50;;
60867;SDS011;46702;48.370;10.794;2023-05-10T12:58:08;1.33;;;0.60;;
60867;SDS011;46702;48.370;10.794;2023-05-10T13:00:33;0.50;;;0.50;;
60867;SDS011;46702;48.370;10.794;2023-05-10T13:02:59;1.13;;;0.70;;
60867;SDS011;46702;48.370;10.794;2023-05-10T13:05:25;1.73;;;0.77;;
60867;SDS011;46702;48.370;10.794;2023-05-10T13:07:50;0.40;;;0.40;;
60867;SDS011;46702;48.370;10.794;2023-05-10T13:10:16;0.50;;;0.50;;
60867;SDS011;46702;48.370;10.794;2023-05-10T13:12:42;0.55;;;0.55;;
60867;SDS011;46702;48.370;10.794;2023-05-10T13:15:08;0.55;;;0.55;;
60867;SDS011;46702;48.370;10.794;2023-05-10T13:17:33;1.27;;;0.70;;
60867;SDS011;46702;48.370;10.794;2023-05-10T13:19:59;1.17;;;0.82;;
60867;SDS011;46702;48.370;10.794;2023-05-10T13:22:26;0.60;;;0.60;;
60867;SDS011;46702;48.370;10.794;2023-05-10T13:25:01;0.95;;;0.70;;
60867;SDS011;46702;48.370;10.794;2023-05-10T13:27:29;2.63;;;0.75;;
60867;SDS011;46702;48.370;10.794;2023-05-10T13:29:55;1.05;;;0.70;;
60867;SDS011;46702;48.370;10.794;2023-05-10T13:32:21;0.80;;;0.80;;
60867;SDS011;46702;48.370;10.794;2023-05-10T13:34:46;0.80;;;0.75;;
60867;SDS011;46702;48.370;10.794;2023-05-10T13:37:12;0.77;;;0.77;;
60867;SDS011;46702;48.370;10.794;2023-05-10T13:39:37;0.52;;;0.52;;
60867;SDS011;46702;48.370;10.794;2023-05-10T13:42:03;0.80;;;0.80;;
60867;SDS011;46702;48.370;10.794;2023-05-10T13:44:29;0.77;;;0.70;;
60867;SDS011;46702;48.370;10.794;2023-05-10T13:46:55;0.55;;;0.55;;
60867;SDS011;46702;48.370;10.794;2023-05-10T13:49:21;1.35;;;0.80;;
60867;SDS011;46702;48.370;10.794;2023-05-10T13:51:47;1.05;;;0.80;;
60867;SDS011;46702;48.370;10.794;2023-05-10T13:54:13;0.70;;;0.70;;
60867;SDS011;46702;48.370;10.794;2023-05-10T13:56:39;2.50;;;0.80;;
60867;SDS011;46702;48.370;10.794;2023-05-10T13:59:05;2.88;;;1.00;;
60867;SDS011;46702;48.370;10.794;2023-05-10T14:01:32;0.93;;;0.77;;
60867;SDS011;46702;48.370;10.794;2023-05-10T14:03:58;2.05;;;0.63;;
60867;SDS011;46702;48.370;10.794;2023-05-10T14:06:24;0.43;;;0.40;;
60867;SDS011;46702;48.370;10.794;2023-05-10T14:08:49;1.55;;;0.77;;
60867;SDS011;46702;48.370;10.794;2023-05-10T14:11:15;1.35;;;0.75;;
60867;SDS011;46702;48.370;10.794;2023-05-10T14:13:41;2.08;;;0.88;;
60867;SDS011;46702;48.370;10.794;2023-05-10T14:16:07;0.77;;;0.77;;
60867;SDS011;46702;48.370;10.794;2023-05-10T14:18:32;0.82;;;0.80;;
60867;SDS011;46702;48.370;10.794;2023-05-10T14:20:58;1.95;;;1.10;;
60867;SDS011;46702;48.370;10.794;2023-05-10T14:23:23;1.27;;;1.00;;
60867;SDS011;46702;48.370;10.794;2023-05-10T14:25:50;1.80;;;0.70;;
60867;SDS011;46702;48.370;10.794;2023-05-10T14:28:16;2.33;;;0.70;;
60867;SDS011;46702;48.370;10.794;2023-05-10T14:30:43;1.50;;;0.70;;
60867;SDS011;46702;48.370;10.794;2023-05-10T14:33:09;1.30;;;0.60;;
60867;SDS011;46702;48.370;10.794;2023-05-10T14:35:35;1.45;;;0.68;;
60867;SDS011;46702;48.370;10.794;2023-05-10T14:38:01;1.27;;;0.82;;
60867;SDS011;46702;48.370;10.794;2023-05-10T14:40:28;0.98;;;0.70;;
60867;SDS011;46702;48.370;10.794;2023-05-10T14:42:54;0.75;;;0.73;;
60867;SDS011;46702;48.370;10.794;2023-05-10T14:45:21;2.25;;;0.80;;
60867;SDS011;46702;48.370;10.794;2023-05-10T14:47:47;1.75;;;0.68;;
60867;SDS011;46702;48.370;10.794;2023-05-10T14:50:13;0.80;;;0.80;;
60867;SDS011;46702;48.370;10.794;2023-05-10T14:52:39;0.85;;;0.70;;
60867;SDS011;46702;48.370;10.794;2023-05-10T14:55:05;0.47;;;0.47;;
60867;SDS011;46702;48.370;10.794;2023-05-10T14:57:31;0.63;;;0.63;;
60867;SDS011;46702;48.370;10.794;2023-05-10T14:59:58;0.43;;;0.43;;
60867;SDS011;46702;48.370;10.794;2023-05-10T15:02:23;1.65;;;0.82;;
60867;SDS011;46702;48.370;10.794;2023-05-10T15:04:49;0.80;;;0.80;;
60867;SDS011;46702;48.370;10.794;2023-05-10T15:07:15;0.80;;;0.80;;
60867;SDS011;46702;48.370;10.794;2023-05-10T15:09:43;0.80;;;0.80;;
60867;SDS011;46702;48.370;10.794;2023-05-10T15:12:09;2.47;;;0.60;;
60867;SDS011;46702;48.370;10.794;2023-05-10T15:14:35;0.95;;;0.60;;
60867;SDS011;46702;48.370;10.794;2023-05-10T15:17:01;0.70;;;0.68;;
60867;SDS011;46702;48.370;10.794;2023-05-10T15:19:27;0.93;;;0.70;;
60867;SDS011;46702;48.370;10.794;2023-05-10T15:21:54;1.95;;;0.70;;
60867;SDS011;46702;48.370;10.794;2023-05-10T15:24:20;0.70;;;0.70;;
60867;SDS011;46702;48.370;10.794;2023-05-10T15:26:46;0.60;;;0.57;;
60867;SDS011;46702;48.370;10.794;2023-05-10T15:29:12;0.85;;;0.65;;
60867;SDS011;46702;48.370;10.794;2023-05-10T15:31:44;1.15;;;0.77;;
60867;SDS011;46702;48.370;10.794;2023-05-10T15:34:14;0.95;;;0.80;;
60867;SDS011;46702;48.370;10.794;2023-05-10T15:36:40;0.90;;;0.90;;
60867;SDS011;46702;48.370;10.794;2023-05-10T15:39:06;1.63;;;1.20;;